Flinter Rose — PBUB — position and weather

sailwx.info

Track history (hours):
 
Tides and Currents Weather Stations Pressure Air Temp Water Temp Dewpoint Dewpoint Depression Visibility Wind Speed Wind Dir Waves Ship Positions

Flinter Rose

Last reported at 2017-Dec-10 03:31 UTC. Time now 2017-Dec-12 10:20 UTC.
Position N 52°20' W 005°37'.

Length 101 m; draft 3.7 m.

Type: Cargo ship. MMSI: 246227000.

Date/timePositionNaut miles runAvg speedWind from/ knotsBaromVisibWave heightAir tempDewpointWater temp
2017-Dec-10 03:31N 52°20' W 005°37'1 9.8
2017-Dec-10 03:28N 52°21' W 005°37'93 9.7
2017-Dec-09 17:51N 53°34' W 004°01'410.4
2017-Dec-09 17:30N 53°34' W 003°55'510.4
2017-Dec-09 17:00N 53°34' W 003°46'510.1
2017-Dec-09 16:30N 53°34' W 003°38'5 9.8
2017-Dec-09 16:00N 53°34' W 003°30'5 9.6
2017-Dec-09 15:30N 53°33' W 003°22'4 7.6
2017-Dec-09 15:01N 53°31' W 003°16'5 9.5
2017-Dec-09 14:30N 53°32' W 003°08'5 9.7
2017-Dec-09 14:01N 53°28' W 003°03'4 8.1
2017-Dec-09 13:30N 53°24' W 003°00'4 8.5
2017-Dec-09 13:01N 53°20' W 002°57'1 2.2
2017-Dec-09 12:30N 53°19' W 002°57'2 3.6
2017-Dec-09 12:00N 53°18' W 002°54'1 2.7
2017-Dec-09 11:30N 53°17' W 002°53'1 1.4
2017-Dec-09 10:57N 53°17' W 002°54'0 0.0
2017-Dec-09 10:27N 53°17' W 002°54'0 0.0
2017-Dec-09 10:00N 53°17' W 002°54'0 0.0
2017-Dec-09 09:27N 53°17' W 002°54'0 0.0
2017-Dec-09 09:00N 53°17' W 002°54'0 0.0
2017-Dec-09 08:30N 53°17' W 002°54'0 0.0
2017-Dec-09 08:00N 53°17' W 002°54'0 0.0
2017-Dec-09 07:30N 53°17' W 002°54'0 0.0
2017-Dec-09 06:57N 53°17' W 002°54'0 0.0
2017-Dec-09 06:30N 53°17' W 002°54'0 0.0
2017-Dec-09 06:00N 53°17' W 002°54'0 0.0
2017-Dec-09 05:30N 53°17' W 002°54'0 0.0
2017-Dec-09 04:57N 53°17' W 002°54'0 0.0
2017-Dec-09 04:30N 53°17' W 002°54'0 0.0
2017-Dec-09 03:57N 53°17' W 002°54'0 0.0
2017-Dec-09 03:30N 53°17' W 002°54'0 0.0
2017-Dec-09 02:57N 53°17' W 002°54'0 0.0
2017-Dec-09 02:30N 53°17' W 002°54'0 0.0
2017-Dec-09 01:57N 53°17' W 002°54'0 0.0
2017-Dec-09 01:30N 53°17' W 002°54'0 0.0
2017-Dec-09 01:00N 53°17' W 002°54'0 0.0
2017-Dec-09 00:27N 53°17' W 002°54'0 0.0
2017-Dec-09 00:00N 53°17' W 002°54'0 0.0
2017-Dec-08 23:30N 53°17' W 002°54'0 0.0
2017-Dec-08 23:00N 53°17' W 002°54'0 0.0
2017-Dec-08 22:30N 53°17' W 002°54'0 0.0
2017-Dec-08 22:00N 53°17' W 002°54'0 0.0
2017-Dec-08 21:30N 53°17' W 002°54'0 0.0
2017-Dec-08 21:00N 53°17' W 002°54'0 0.0
2017-Dec-08 20:30N 53°17' W 002°54'0 0.0
2017-Dec-08 20:00N 53°17' W 002°54'0 0.0
2017-Dec-08 19:30N 53°17' W 002°54'0 0.0
2017-Dec-08 19:00N 53°17' W 002°54'0 0.0
2017-Dec-08 18:30N 53°17' W 002°54'0 0.0
2017-Dec-08 17:57N 53°17' W 002°54'0 0.0
2017-Dec-08 17:27N 53°17' W 002°54'0 0.0
2017-Dec-08 16:54N 53°17' W 002°54'0 0.0
2017-Dec-08 16:30N 53°17' W 002°54'0 0.0
2017-Dec-08 16:00N 53°17' W 002°54'0 0.0
2017-Dec-08 15:30N 53°17' W 002°54'0 0.0
2017-Dec-08 15:00N 53°17' W 002°54'0 0.0
2017-Dec-08 14:30N 53°17' W 002°54'0 0.0
2017-Dec-08 14:00N 53°17' W 002°54'0 0.0
2017-Dec-08 13:30N 53°17' W 002°54'0 0.0
2017-Dec-08 13:00N 53°17' W 002°54'0 0.0
2017-Dec-08 12:27N 53°17' W 002°54'0 0.0
2017-Dec-08 12:00N 53°17' W 002°54'0 0.0
2017-Dec-08 11:30N 53°17' W 002°54'0 0.0
2017-Dec-08 11:00N 53°17' W 002°54'0 0.0
2017-Dec-08 10:30N 53°17' W 002°54'0 0.0
2017-Dec-08 09:54N 53°17' W 002°54'0 0.0
2017-Dec-08 09:27N 53°17' W 002°54'0 0.0
2017-Dec-08 09:00N 53°17' W 002°54'0 0.0
2017-Dec-08 08:30N 53°17' W 002°54'0 0.0
2017-Dec-08 08:00N 53°17' W 002°54'0 0.0
2017-Dec-08 07:30N 53°17' W 002°54'0 0.0
2017-Dec-08 06:57N 53°17' W 002°54'0 0.0
2017-Dec-08 06:30N 53°17' W 002°54'0 0.0
2017-Dec-08 06:00N 53°17' W 002°54'0 0.0
2017-Dec-08 05:30N 53°17' W 002°54'0 0.0
2017-Dec-08 05:00N 53°17' W 002°54'0 0.0
2017-Dec-08 04:30N 53°17' W 002°54'0 0.0
2017-Dec-08 04:00N 53°17' W 002°54'0 0.0
2017-Dec-08 03:30N 53°17' W 002°54'0 0.0
2017-Dec-08 03:00N 53°17' W 002°54'0 0.0
2017-Dec-08 02:27N 53°17' W 002°54'0 0.0
2017-Dec-08 01:54N 53°17' W 002°54'0 0.0
2017-Dec-08 01:24N 53°17' W 002°54'0 0.0
2017-Dec-08 01:00N 53°17' W 002°54'0 0.0
2017-Dec-08 00:24N 53°17' W 002°54'0 0.0
2017-Dec-07 23:57N 53°17' W 002°54'0 0.0
2017-Dec-07 23:12N 53°17' W 002°54'0 0.0
2017-Dec-07 23:00N 53°17' W 002°54'0 0.0
2017-Dec-07 22:30N 53°17' W 002°54'0 0.0
2017-Dec-07 22:00N 53°17' W 002°54'0 0.0
2017-Dec-07 21:30N 53°17' W 002°54'0 0.0
2017-Dec-07 21:00N 53°17' W 002°54'0 0.0
2017-Dec-07 20:30N 53°17' W 002°54'0 0.0
2017-Dec-07 20:00N 53°17' W 002°54'0 0.0
2017-Dec-07 19:30N 53°17' W 002°54'0 0.0
2017-Dec-07 18:57N 53°17' W 002°54'0 0.0
2017-Dec-07 18:27N 53°17' W 002°54'0 0.0
2017-Dec-07 18:00N 53°17' W 002°54'0 0.0
2017-Dec-07 17:30N 53°17' W 002°54'0 0.0
2017-Dec-07 17:00N 53°17' W 002°54'0 0.0
2017-Dec-07 16:30N 53°17' W 002°54'0 0.0
2017-Dec-07 16:00N 53°17' W 002°54'0 0.0
2017-Dec-07 15:27N 53°17' W 002°54'0 0.0
2017-Dec-07 14:57N 53°17' W 002°54'0 0.0
2017-Dec-07 14:30N 53°17' W 002°54'0 0.0
2017-Dec-07 13:57N 53°17' W 002°54'0 0.0
2017-Dec-07 13:30N 53°17' W 002°54'0 0.0
2017-Dec-07 13:00N 53°17' W 002°54'0 0.0
2017-Dec-07 12:30N 53°17' W 002°54'0 0.0
2017-Dec-07 12:00N 53°17' W 002°54'0 0.0
2017-Dec-07 11:30N 53°17' W 002°54'0 0.0
2017-Dec-07 11:00N 53°17' W 002°54'0 0.0
2017-Dec-07 10:30N 53°17' W 002°54'0 0.0
2017-Dec-07 10:00N 53°17' W 002°54'0 0.0
2017-Dec-07 09:30N 53°17' W 002°54'0 0.0
2017-Dec-07 08:57N 53°17' W 002°54'0 0.0
2017-Dec-07 08:30N 53°17' W 002°54'0 0.0
2017-Dec-07 08:00N 53°17' W 002°54'0 0.0
2017-Dec-07 07:30N 53°17' W 002°54'0 0.0
2017-Dec-07 07:00N 53°17' W 002°54'0 0.0
2017-Dec-07 06:30N 53°17' W 002°54'0 0.0
2017-Dec-07 06:00N 53°17' W 002°54'0 0.0
2017-Dec-07 05:30N 53°17' W 002°54'0 0.0
2017-Dec-07 05:00N 53°17' W 002°54'0 0.0
2017-Dec-07 04:30N 53°17' W 002°54'0 0.0
2017-Dec-07 04:00N 53°17' W 002°54'0 0.0
2017-Dec-07 03:30N 53°17' W 002°54'0 0.0
2017-Dec-07 03:00N 53°17' W 002°54'0 0.0
2017-Dec-07 02:30N 53°17' W 002°54'0 0.0
2017-Dec-07 02:00N 53°17' W 002°54'0 0.0
2017-Dec-07 01:30N 53°17' W 002°54'0 0.0
2017-Dec-07 01:00N 53°17' W 002°54'0 0.0
2017-Dec-07 00:27N 53°17' W 002°54'0 0.0
2017-Dec-07 00:00N 53°17' W 002°54'0 0.0
2017-Dec-06 23:27N 53°17' W 002°54'0 0.0
2017-Dec-06 22:57N 53°17' W 002°54'0 0.0
2017-Dec-06 22:30N 53°17' W 002°54'0 0.0
2017-Dec-06 22:00N 53°17' W 002°54'0 0.0
2017-Dec-06 21:30N 53°17' W 002°54'0 0.0
2017-Dec-06 20:57N 53°17' W 002°54'  
2017-Dec-04 10:30N 53°31' W 003°15'5 9.0
2017-Dec-04 10:00N 53°31' W 003°23'611.9
2017-Dec-04 09:30N 53°31' W 003°33'4 7.9
2017-Dec-04 09:00N 53°31' W 003°40'4 7.5
2017-Dec-04 08:30N 53°31' W 003°46'3 6.1
2017-Dec-04 07:59N 53°32' W 003°51'1 2.2
2017-Dec-04 07:30N 53°32' W 003°49'1 2.3
2017-Dec-04 07:00N 53°32' W 003°47'4 7.5
2017-Dec-04 06:30N 53°33' W 003°53'4 7.4
2017-Dec-04 06:00N 53°36' W 003°57'  
Track history (hours):
 
Tides and Currents Weather Stations Pressure Air Temp Water Temp Dewpoint Dewpoint Depression Visibility Wind Speed Wind Dir Waves Ship Positions

Flinter Rose

Last reported at 2017-Dec-10 03:31 UTC. Time now 2017-Dec-12 10:20 UTC.
Position N 52°20' W 005°37'.

Length 101 m; draft 3.7 m.

Type: Cargo ship. MMSI: 246227000.

Date/timePositionNaut miles runAvg speedWind from/ knotsBaromVisibWave heightAir tempDewpointWater temp
2017-Dec-10 03:31N 52°20' W 005°37'1 9.8
2017-Dec-10 03:28N 52°21' W 005°37'93 9.7
2017-Dec-09 17:51N 53°34' W 004°01'410.4
2017-Dec-09 17:30N 53°34' W 003°55'510.4
2017-Dec-09 17:00N 53°34' W 003°46'510.1
2017-Dec-09 16:30N 53°34' W 003°38'5 9.8
2017-Dec-09 16:00N 53°34' W 003°30'5 9.6
2017-Dec-09 15:30N 53°33' W 003°22'4 7.6
2017-Dec-09 15:01N 53°31' W 003°16'5 9.5
2017-Dec-09 14:30N 53°32' W 003°08'5 9.7
2017-Dec-09 14:01N 53°28' W 003°03'4 8.1
2017-Dec-09 13:30N 53°24' W 003°00'4 8.5
2017-Dec-09 13:01N 53°20' W 002°57'1 2.2
2017-Dec-09 12:30N 53°19' W 002°57'2 3.6
2017-Dec-09 12:00N 53°18' W 002°54'1 2.7
2017-Dec-09 11:30N 53°17' W 002°53'1 1.4
2017-Dec-09 10:57N 53°17' W 002°54'0 0.0
2017-Dec-09 10:27N 53°17' W 002°54'0 0.0
2017-Dec-09 10:00N 53°17' W 002°54'0 0.0
2017-Dec-09 09:27N 53°17' W 002°54'0 0.0
2017-Dec-09 09:00N 53°17' W 002°54'0 0.0
2017-Dec-09 08:30N 53°17' W 002°54'0 0.0
2017-Dec-09 08:00N 53°17' W 002°54'0 0.0
2017-Dec-09 07:30N 53°17' W 002°54'0 0.0
2017-Dec-09 06:57N 53°17' W 002°54'0 0.0
2017-Dec-09 06:30N 53°17' W 002°54'0 0.0
2017-Dec-09 06:00N 53°17' W 002°54'0 0.0
2017-Dec-09 05:30N 53°17' W 002°54'0 0.0
2017-Dec-09 04:57N 53°17' W 002°54'0 0.0
2017-Dec-09 04:30N 53°17' W 002°54'0 0.0
2017-Dec-09 03:57N 53°17' W 002°54'0 0.0
2017-Dec-09 03:30N 53°17' W 002°54'0 0.0
2017-Dec-09 02:57N 53°17' W 002°54'0 0.0
2017-Dec-09 02:30N 53°17' W 002°54'0 0.0
2017-Dec-09 01:57N 53°17' W 002°54'0 0.0
2017-Dec-09 01:30N 53°17' W 002°54'0 0.0
2017-Dec-09 01:00N 53°17' W 002°54'0 0.0
2017-Dec-09 00:27N 53°17' W 002°54'0 0.0
2017-Dec-09 00:00N 53°17' W 002°54'0 0.0
2017-Dec-08 23:30N 53°17' W 002°54'0 0.0
2017-Dec-08 23:00N 53°17' W 002°54'0 0.0
2017-Dec-08 22:30N 53°17' W 002°54'0 0.0
2017-Dec-08 22:00N 53°17' W 002°54'0 0.0
2017-Dec-08 21:30N 53°17' W 002°54'0 0.0
2017-Dec-08 21:00N 53°17' W 002°54'0 0.0
2017-Dec-08 20:30N 53°17' W 002°54'0 0.0
2017-Dec-08 20:00N 53°17' W 002°54'0 0.0
2017-Dec-08 19:30N 53°17' W 002°54'0 0.0
2017-Dec-08 19:00N 53°17' W 002°54'0 0.0
2017-Dec-08 18:30N 53°17' W 002°54'0 0.0
2017-Dec-08 17:57N 53°17' W 002°54'0 0.0
2017-Dec-08 17:27N 53°17' W 002°54'0 0.0
2017-Dec-08 16:54N 53°17' W 002°54'0 0.0
2017-Dec-08 16:30N 53°17' W 002°54'0 0.0
2017-Dec-08 16:00N 53°17' W 002°54'0 0.0
2017-Dec-08 15:30N 53°17' W 002°54'0 0.0
2017-Dec-08 15:00N 53°17' W 002°54'0 0.0
2017-Dec-08 14:30N 53°17' W 002°54'0 0.0
2017-Dec-08 14:00N 53°17' W 002°54'0 0.0
2017-Dec-08 13:30N 53°17' W 002°54'0 0.0
2017-Dec-08 13:00N 53°17' W 002°54'0 0.0
2017-Dec-08 12:27N 53°17' W 002°54'0 0.0
2017-Dec-08 12:00N 53°17' W 002°54'0 0.0
2017-Dec-08 11:30N 53°17' W 002°54'0 0.0
2017-Dec-08 11:00N 53°17' W 002°54'0 0.0
2017-Dec-08 10:30N 53°17' W 002°54'0 0.0
2017-Dec-08 09:54N 53°17' W 002°54'0 0.0
2017-Dec-08 09:27N 53°17' W 002°54'0 0.0
2017-Dec-08 09:00N 53°17' W 002°54'0 0.0
2017-Dec-08 08:30N 53°17' W 002°54'0 0.0
2017-Dec-08 08:00N 53°17' W 002°54'0 0.0
2017-Dec-08 07:30N 53°17' W 002°54'0 0.0
2017-Dec-08 06:57N 53°17' W 002°54'0 0.0
2017-Dec-08 06:30N 53°17' W 002°54'0 0.0
2017-Dec-08 06:00N 53°17' W 002°54'0 0.0
2017-Dec-08 05:30N 53°17' W 002°54'0 0.0
2017-Dec-08 05:00N 53°17' W 002°54'0 0.0
2017-Dec-08 04:30N 53°17' W 002°54'0 0.0
2017-Dec-08 04:00N 53°17' W 002°54'0 0.0
2017-Dec-08 03:30N 53°17' W 002°54'0 0.0
2017-Dec-08 03:00N 53°17' W 002°54'0 0.0
2017-Dec-08 02:27N 53°17' W 002°54'0 0.0
2017-Dec-08 01:54N 53°17' W 002°54'0 0.0
2017-Dec-08 01:24N 53°17' W 002°54'0 0.0
2017-Dec-08 01:00N 53°17' W 002°54'0 0.0
2017-Dec-08 00:24N 53°17' W 002°54'0 0.0
2017-Dec-07 23:57N 53°17' W 002°54'0 0.0
2017-Dec-07 23:12N 53°17' W 002°54'0 0.0
2017-Dec-07 23:00N 53°17' W 002°54'0 0.0
2017-Dec-07 22:30N 53°17' W 002°54'0 0.0
2017-Dec-07 22:00N 53°17' W 002°54'0 0.0
2017-Dec-07 21:30N 53°17' W 002°54'0 0.0
2017-Dec-07 21:00N 53°17' W 002°54'0 0.0
2017-Dec-07 20:30N 53°17' W 002°54'0 0.0
2017-Dec-07 20:00N 53°17' W 002°54'0 0.0
2017-Dec-07 19:30N 53°17' W 002°54'0 0.0
2017-Dec-07 18:57N 53°17' W 002°54'0 0.0
2017-Dec-07 18:27N 53°17' W 002°54'0 0.0
2017-Dec-07 18:00N 53°17' W 002°54'0 0.0
2017-Dec-07 17:30N 53°17' W 002°54'0 0.0
2017-Dec-07 17:00N 53°17' W 002°54'0 0.0
2017-Dec-07 16:30N 53°17' W 002°54'0 0.0
2017-Dec-07 16:00N 53°17' W 002°54'0 0.0
2017-Dec-07 15:27N 53°17' W 002°54'0 0.0
2017-Dec-07 14:57N 53°17' W 002°54'0 0.0
2017-Dec-07 14:30N 53°17' W 002°54'0 0.0
2017-Dec-07 13:57N 53°17' W 002°54'0 0.0
2017-Dec-07 13:30N 53°17' W 002°54'0 0.0
2017-Dec-07 13:00N 53°17' W 002°54'0 0.0
2017-Dec-07 12:30N 53°17' W 002°54'0 0.0
2017-Dec-07 12:00N 53°17' W 002°54'0 0.0
2017-Dec-07 11:30N 53°17' W 002°54'0 0.0
2017-Dec-07 11:00N 53°17' W 002°54'0 0.0
2017-Dec-07 10:30N 53°17' W 002°54'0 0.0
2017-Dec-07 10:00N 53°17' W 002°54'0 0.0
2017-Dec-07 09:30N 53°17' W 002°54'0 0.0
2017-Dec-07 08:57N 53°17' W 002°54'0 0.0
2017-Dec-07 08:30N 53°17' W 002°54'0 0.0
2017-Dec-07 08:00N 53°17' W 002°54'0 0.0
2017-Dec-07 07:30N 53°17' W 002°54'0 0.0
2017-Dec-07 07:00N 53°17' W 002°54'0 0.0
2017-Dec-07 06:30N 53°17' W 002°54'0 0.0
2017-Dec-07 06:00N 53°17' W 002°54'0 0.0
2017-Dec-07 05:30N 53°17' W 002°54'0 0.0
2017-Dec-07 05:00N 53°17' W 002°54'0 0.0
2017-Dec-07 04:30N 53°17' W 002°54'0 0.0
2017-Dec-07 04:00N 53°17' W 002°54'0 0.0
2017-Dec-07 03:30N 53°17' W 002°54'0 0.0
2017-Dec-07 03:00N 53°17' W 002°54'0 0.0
2017-Dec-07 02:30N 53°17' W 002°54'0 0.0
2017-Dec-07 02:00N 53°17' W 002°54'0 0.0
2017-Dec-07 01:30N 53°17' W 002°54'0 0.0
2017-Dec-07 01:00N 53°17' W 002°54'0 0.0
2017-Dec-07 00:27N 53°17' W 002°54'0 0.0
2017-Dec-07 00:00N 53°17' W 002°54'0 0.0
2017-Dec-06 23:27N 53°17' W 002°54'0 0.0
2017-Dec-06 22:57N 53°17' W 002°54'0 0.0
2017-Dec-06 22:30N 53°17' W 002°54'0 0.0
2017-Dec-06 22:00N 53°17' W 002°54'0 0.0
2017-Dec-06 21:30N 53°17' W 002°54'0 0.0
2017-Dec-06 20:57N 53°17' W 002°54'  
2017-Dec-04 10:30N 53°31' W 003°15'5 9.0
2017-Dec-04 10:00N 53°31' W 003°23'611.9
2017-Dec-04 09:30N 53°31' W 003°33'4 7.9
2017-Dec-04 09:00N 53°31' W 003°40'4 7.5
2017-Dec-04 08:30N 53°31' W 003°46'3 6.1
2017-Dec-04 07:59N 53°32' W 003°51'1 2.2
2017-Dec-04 07:30N 53°32' W 003°49'1 2.3
2017-Dec-04 07:00N 53°32' W 003°47'4 7.5
2017-Dec-04 06:30N 53°33' W 003°53'4 7.4
2017-Dec-04 06:00N 53°36' W 003°57'  

Dump ship's entire track history